createdAt,value
2023-10-18T00:00:00.716Z,5.63
2023-10-18T00:05:00.382Z,5.61
2023-10-18T00:10:00.507Z,5.59
2023-10-18T00:15:00.432Z,5.58
2023-10-18T00:20:00.437Z,5.51
2023-10-18T00:25:00.490Z,5.47
2023-10-18T00:30:01.472Z,5.44
2023-10-18T00:35:00.724Z,5.46
2023-10-18T00:40:00.476Z,5.43
2023-10-18T00:45:00.419Z,5.42
2023-10-18T00:50:00.602Z,5.41
2023-10-18T00:55:00.568Z,5.47
2023-10-18T01:00:01.350Z,5.43
2023-10-18T01:05:03.715Z,5.38
2023-10-18T01:10:00.419Z,5.36
2023-10-18T01:15:01.167Z,5.40
2023-10-18T01:20:01.197Z,5.39
2023-10-18T01:25:00.450Z,5.35
2023-10-18T01:30:00.414Z,5.29
2023-10-18T01:35:00.429Z,5.23
2023-10-18T01:40:00.453Z,5.27
2023-10-18T01:45:00.477Z,5.29
2023-10-18T01:50:00.572Z,5.30
2023-10-18T01:55:00.439Z,5.30
2023-10-18T02:00:00.957Z,5.28
2023-10-18T02:05:00.428Z,5.35
2023-10-18T02:10:00.546Z,5.36
2023-10-18T02:15:00.425Z,5.37
2023-10-18T02:20:00.387Z,5.33
2023-10-18T02:25:00.404Z,5.32
2023-10-18T02:30:00.433Z,5.28
2023-10-18T02:35:00.996Z,5.20
2023-10-18T02:40:05.457Z,5.16
2023-10-18T02:45:01.041Z,5.14
2023-10-18T02:50:00.383Z,5.12
2023-10-18T02:55:00.441Z,5.14
2023-10-18T03:00:00.698Z,5.14
2023-10-18T03:05:00.360Z,5.13
2023-10-18T03:10:01.252Z,5.10
2023-10-18T03:15:00.412Z,5.10
2023-10-18T03:20:00.430Z,5.08
2023-10-18T03:25:01.035Z,5.10
2023-10-18T03:30:00.668Z,5.14
2023-10-18T03:35:00.398Z,5.13
2023-10-18T03:40:00.470Z,5.12
2023-10-18T03:45:02.414Z,5.15
2023-10-18T03:50:00.370Z,5.15
2023-10-18T03:55:00.425Z,5.14
2023-10-18T04:00:00.717Z,5.15
2023-10-18T04:05:00.503Z,5.16
2023-10-18T04:10:00.819Z,5.16
2023-10-18T04:15:00.406Z,5.15
2023-10-18T04:20:05.049Z,5.19
2023-10-18T04:25:00.359Z,5.20
2023-10-18T04:30:02.046Z,5.26
2023-10-18T04:35:00.430Z,5.24
2023-10-18T04:40:00.464Z,5.22
2023-10-18T04:45:01.034Z,5.29
2023-10-18T04:50:00.377Z,5.36
2023-10-18T04:55:00.399Z,5.33
2023-10-18T05:00:00.599Z,5.31
2023-10-18T05:05:04.061Z,5.27
2023-10-18T05:10:00.396Z,5.24
2023-10-18T05:15:00.378Z,5.19
2023-10-18T05:20:00.441Z,5.17
2023-10-18T05:25:00.568Z,5.16
2023-10-18T05:30:00.390Z,5.17
2023-10-18T05:35:12.466Z,5.17
2023-10-18T05:40:00.490Z,5.18
2023-10-18T05:45:00.368Z,5.21
2023-10-18T05:50:00.415Z,5.30
2023-10-18T05:55:00.387Z,5.36
2023-10-18T06:00:01.452Z,5.35
2023-10-18T06:05:00.417Z,5.34
2023-10-18T06:10:00.462Z,5.36
2023-10-18T06:15:00.389Z,5.35
2023-10-18T06:20:00.639Z,5.38
2023-10-18T06:25:00.432Z,5.41
2023-10-18T06:30:00.358Z,5.46
2023-10-18T06:35:00.384Z,5.50
2023-10-18T06:40:00.473Z,5.53
2023-10-18T06:45:00.338Z,5.58
2023-10-18T06:50:11.760Z,5.64
2023-10-18T06:55:00.422Z,5.66
2023-10-18T07:00:02.107Z,5.70
2023-10-18T07:05:00.339Z,5.77
2023-10-18T07:10:00.444Z,5.86
2023-10-18T07:15:00.384Z,5.93
2023-10-18T07:20:00.472Z,6.01
2023-10-18T07:25:00.395Z,6.08
2023-10-18T07:30:00.374Z,6.16
2023-10-18T07:35:00.385Z,6.25
2023-10-18T07:40:00.379Z,6.39
2023-10-18T07:45:01.489Z,6.56
2023-10-18T07:50:00.440Z,6.71
2023-10-18T07:55:00.351Z,6.94
2023-10-18T08:00:00.871Z,7.07
2023-10-18T08:05:00.645Z,7.13
2023-10-18T08:10:00.519Z,7.32
2023-10-18T08:15:00.515Z,7.51
2023-10-18T08:20:02.050Z,7.65
2023-10-18T08:25:00.461Z,8.07
2023-10-18T08:30:00.406Z,8.40
2023-10-18T08:35:00.400Z,8.75
2023-10-18T08:40:00.415Z,9.26
2023-10-18T08:45:02.446Z,9.64
2023-10-18T08:50:00.665Z,9.34
2023-10-18T08:55:01.132Z,9.28
2023-10-18T09:00:03.330Z,9.68
2023-10-18T09:05:00.631Z,9.25
2023-10-18T09:10:02.191Z,9.44
2023-10-18T09:15:00.564Z,9.55
2023-10-18T09:20:00.349Z,9.66
2023-10-18T09:25:00.418Z,9.72
2023-10-18T09:30:00.373Z,9.72
2023-10-18T09:35:03.281Z,9.82
2023-10-18T09:40:00.862Z,10.05
2023-10-18T09:45:00.786Z,10.18
2023-10-18T09:50:02.842Z,10.19
2023-10-18T09:55:01.155Z,10.40
2023-10-18T10:00:01.169Z,10.56
2023-10-18T10:05:01.668Z,10.74
2023-10-18T10:10:00.900Z,10.97
2023-10-18T10:15:00.623Z,10.81
2023-10-18T10:20:05.516Z,10.98
2023-10-18T10:25:07.914Z,11.15
2023-10-18T10:30:09.750Z,11.26
2023-10-18T10:35:17.596Z,11.36
2023-10-18T10:40:00.732Z,11.59
2023-10-18T10:45:00.875Z,11.80
2023-10-18T10:50:01.180Z,11.91
2023-10-18T10:55:01.929Z,11.75
2023-10-18T11:00:04.526Z,11.90
2023-10-18T11:05:00.679Z,12.15
2023-10-18T11:10:03.276Z,12.26
2023-10-18T11:15:01.776Z,12.26
2023-10-18T11:20:00.850Z,12.34
2023-10-18T11:25:00.592Z,12.55
2023-10-18T11:30:01.194Z,12.69
2023-10-18T11:35:00.440Z,12.73
2023-10-18T11:40:08.605Z,12.90
2023-10-18T11:45:00.419Z,13.33
2023-10-18T11:50:00.441Z,13.50
2023-10-18T11:55:04.859Z,13.67
2023-10-18T12:00:01.078Z,13.65
2023-10-18T12:05:00.461Z,13.75
2023-10-18T12:10:00.398Z,13.69
2023-10-18T12:15:00.459Z,13.89
2023-10-18T12:20:00.353Z,14.03
2023-10-18T12:25:00.409Z,14.21
2023-10-18T12:30:02.947Z,14.16
2023-10-18T12:35:00.369Z,14.05
2023-10-18T12:40:00.408Z,13.88
2023-10-18T12:45:00.407Z,13.77
2023-10-18T12:50:00.437Z,13.95
2023-10-18T12:55:00.620Z,14.00
2023-10-18T13:00:02.937Z,14.08
2023-10-18T13:05:00.390Z,14.16
2023-10-18T13:10:00.387Z,14.19
2023-10-18T13:15:00.378Z,14.15
2023-10-18T13:20:03.081Z,14.19
2023-10-18T13:25:00.599Z,14.01
2023-10-18T13:30:00.413Z,14.10
2023-10-18T13:35:00.489Z,14.14
2023-10-18T13:40:03.332Z,14.03
2023-10-18T13:45:00.389Z,13.82
2023-10-18T13:50:00.524Z,13.92
2023-10-18T13:55:00.385Z,14.13
2023-10-18T14:00:00.844Z,14.17
2023-10-18T14:05:00.391Z,14.07
2023-10-18T14:10:00.402Z,13.87
2023-10-18T14:15:00.570Z,13.67
2023-10-18T14:20:12.502Z,13.60
2023-10-18T14:25:00.411Z,13.53
2023-10-18T14:30:00.370Z,13.64
2023-10-18T14:35:00.412Z,13.58
2023-10-18T14:40:00.624Z,13.43
2023-10-18T14:45:00.431Z,13.29
2023-10-18T14:50:00.510Z,13.18
2023-10-18T14:55:03.026Z,13.08
2023-10-18T15:00:00.610Z,12.96
2023-10-18T15:05:00.424Z,12.85
2023-10-18T15:10:00.355Z,12.76
2023-10-18T15:15:00.447Z,12.73
2023-10-18T15:20:00.569Z,12.68
2023-10-18T15:25:01.058Z,12.63
2023-10-18T15:30:00.436Z,12.58
2023-10-18T15:35:01.089Z,12.55
2023-10-18T15:40:00.431Z,12.50
2023-10-18T15:45:00.387Z,12.47
2023-10-18T15:50:00.384Z,12.42
2023-10-18T15:55:00.384Z,12.35
2023-10-18T16:00:00.627Z,12.30
2023-10-18T16:05:00.584Z,12.22
2023-10-18T16:10:00.373Z,12.15
2023-10-18T16:15:00.408Z,12.14
2023-10-18T16:20:00.491Z,12.12
2023-10-18T16:25:00.338Z,12.10
2023-10-18T16:30:00.652Z,12.04
2023-10-18T16:35:00.446Z,12.00
2023-10-18T16:40:00.403Z,11.94
2023-10-18T16:45:00.379Z,11.93
2023-10-18T16:50:12.466Z,11.91
2023-10-18T16:55:00.386Z,11.87
2023-10-18T17:00:00.618Z,11.81
2023-10-18T17:05:00.503Z,11.74
2023-10-18T17:10:00.360Z,11.65
2023-10-18T17:15:00.429Z,11.60
2023-10-18T17:20:00.904Z,11.58
2023-10-18T17:25:00.523Z,11.55
2023-10-18T17:30:00.455Z,11.52
2023-10-18T17:35:00.347Z,11.54
2023-10-18T17:40:00.421Z,11.53
2023-10-18T17:45:00.364Z,11.51
2023-10-18T17:50:02.087Z,11.53
2023-10-18T17:55:00.393Z,11.47
2023-10-18T18:00:04.358Z,11.43
2023-10-18T18:05:00.394Z,11.41
2023-10-18T18:10:00.360Z,11.43
2023-10-18T18:15:00.366Z,11.41
2023-10-18T18:20:00.403Z,11.39
2023-10-18T18:25:00.378Z,11.38
2023-10-18T18:30:06.054Z,11.35
2023-10-18T18:35:00.395Z,11.30
2023-10-18T18:40:00.386Z,11.30
2023-10-18T18:45:00.923Z,11.30
2023-10-18T18:50:00.423Z,11.30
2023-10-18T18:55:00.334Z,11.29
2023-10-18T19:00:00.664Z,11.27
2023-10-18T19:05:00.443Z,11.25
2023-10-18T19:10:00.401Z,11.24
2023-10-18T19:15:00.368Z,11.17
2023-10-18T19:20:00.643Z,11.07
2023-10-18T19:25:00.964Z,11.01
2023-10-18T19:30:03.568Z,10.88
2023-10-18T19:35:00.390Z,10.70
2023-10-18T19:40:00.519Z,10.49
2023-10-18T19:45:00.415Z,10.31
2023-10-18T19:50:00.429Z,10.17
2023-10-18T19:55:00.416Z,10.08
2023-10-18T20:00:00.873Z,9.98
2023-10-18T20:05:02.736Z,9.87
2023-10-18T20:10:01.607Z,9.78
2023-10-18T20:15:00.774Z,9.74
2023-10-18T20:20:00.439Z,9.68
2023-10-18T20:25:00.368Z,9.63
2023-10-18T20:30:00.453Z,9.59
2023-10-18T20:35:00.360Z,9.57
2023-10-18T20:40:03.861Z,9.59
2023-10-18T20:45:00.990Z,9.59
2023-10-18T20:50:00.406Z,9.61
2023-10-18T20:55:00.587Z,9.60
2023-10-18T21:00:00.647Z,9.60
2023-10-18T21:05:00.394Z,9.58
2023-10-18T21:10:00.380Z,9.57
2023-10-18T21:15:00.387Z,9.59
2023-10-18T21:20:00.455Z,9.58
2023-10-18T21:25:00.369Z,9.59
2023-10-18T21:30:00.480Z,9.59
2023-10-18T21:35:00.520Z,9.61
2023-10-18T21:40:00.507Z,9.63
2023-10-18T21:45:01.000Z,9.64
2023-10-18T21:50:01.322Z,9.65
2023-10-18T21:55:00.373Z,9.67
2023-10-18T22:00:03.500Z,9.68
2023-10-18T22:05:00.373Z,9.68
2023-10-18T22:10:00.430Z,9.69
2023-10-18T22:15:00.537Z,9.69
2023-10-18T22:20:00.494Z,9.71
2023-10-18T22:25:00.427Z,9.73
2023-10-18T22:30:00.410Z,9.77
2023-10-18T22:35:00.544Z,9.77
2023-10-18T22:40:00.592Z,9.81
2023-10-18T22:45:00.374Z,9.83
2023-10-18T22:50:00.433Z,9.89
2023-10-18T22:55:00.380Z,9.92
2023-10-18T23:00:00.886Z,9.99
2023-10-18T23:05:00.402Z,10.03
2023-10-18T23:10:00.369Z,10.06
2023-10-18T23:15:00.385Z,10.09
2023-10-18T23:20:00.466Z,10.13
2023-10-18T23:25:00.426Z,10.14
2023-10-18T23:30:02.354Z,10.16
2023-10-18T23:35:00.385Z,10.18
2023-10-18T23:40:01.216Z,10.24
2023-10-18T23:45:00.448Z,10.28
2023-10-18T23:50:00.423Z,10.34
2023-10-18T23:55:00.414Z,10.38
